sensor_id;sensor_type;location;lat;lon;timestamp;P1;durP1;ratioP1;P2;durP2;ratioP2
52956;SDS011;38819;42.692;23.342;2024-03-08T00:00:13;4.78;;;2.97;;
52956;SDS011;38819;42.692;23.342;2024-03-08T00:02:39;3.25;;;2.70;;
52956;SDS011;38819;42.692;23.342;2024-03-08T00:05:06;3.65;;;2.65;;
52956;SDS011;38819;42.692;23.342;2024-03-08T00:07:34;2.53;;;2.33;;
52956;SDS011;38819;42.692;23.342;2024-03-08T00:09:59;3.47;;;2.60;;
52956;SDS011;38819;42.692;23.342;2024-03-08T00:12:25;2.42;;;2.17;;
52956;SDS011;38819;42.692;23.342;2024-03-08T00:14:52;2.40;;;1.93;;
52956;SDS011;38819;42.692;23.342;2024-03-08T00:17:19;2.50;;;2.30;;
52956;SDS011;38819;42.692;23.342;2024-03-08T00:19:45;2.50;;;2.30;;
52956;SDS011;38819;42.692;23.342;2024-03-08T00:22:10;2.15;;;1.92;;
52956;SDS011;38819;42.692;23.342;2024-03-08T00:24:36;1.95;;;1.85;;
52956;SDS011;38819;42.692;23.342;2024-03-08T00:27:02;1.73;;;1.63;;
52956;SDS011;38819;42.692;23.342;2024-03-08T00:31:55;1.40;;;1.30;;
52956;SDS011;38819;42.692;23.342;2024-03-08T00:34:20;1.85;;;1.70;;
52956;SDS011;38819;42.692;23.342;2024-03-08T00:36:45;1.50;;;1.40;;
52956;SDS011;38819;42.692;23.342;2024-03-08T00:39:11;1.10;;;1.10;;
52956;SDS011;38819;42.692;23.342;2024-03-08T00:41:37;1.50;;;1.40;;
52956;SDS011;38819;42.692;23.342;2024-03-08T00:44:02;2.60;;;1.20;;
52956;SDS011;38819;42.692;23.342;2024-03-08T00:46:29;1.23;;;1.20;;
52956;SDS011;38819;42.692;23.342;2024-03-08T00:48:56;1.92;;;1.50;;
52956;SDS011;38819;42.692;23.342;2024-03-08T00:51:23;1.63;;;1.52;;
52956;SDS011;38819;42.692;23.342;2024-03-08T00:53:48;2.45;;;1.73;;
52956;SDS011;38819;42.692;23.342;2024-03-08T00:56:13;1.48;;;1.38;;
52956;SDS011;38819;42.692;23.342;2024-03-08T00:58:39;1.40;;;1.27;;
52956;SDS011;38819;42.692;23.342;2024-03-08T01:01:05;3.55;;;1.60;;
52956;SDS011;38819;42.692;23.342;2024-03-08T01:03:30;1.90;;;1.80;;
52956;SDS011;38819;42.692;23.342;2024-03-08T01:05:59;1.40;;;1.30;;
52956;SDS011;38819;42.692;23.342;2024-03-08T01:08:26;2.73;;;1.40;;
52956;SDS011;38819;42.692;23.342;2024-03-08T01:10:52;1.80;;;1.70;;
52956;SDS011;38819;42.692;23.342;2024-03-08T01:13:18;1.60;;;1.50;;
52956;SDS011;38819;42.692;23.342;2024-03-08T01:15:44;1.30;;;1.20;;
52956;SDS011;38819;42.692;23.342;2024-03-08T01:18:10;1.70;;;1.60;;
52956;SDS011;38819;42.692;23.342;2024-03-08T01:20:35;1.80;;;1.70;;
52956;SDS011;38819;42.692;23.342;2024-03-08T01:23:01;1.63;;;1.52;;
52956;SDS011;38819;42.692;23.342;2024-03-08T01:25:26;1.80;;;1.70;;
52956;SDS011;38819;42.692;23.342;2024-03-08T01:27:52;1.88;;;1.60;;
52956;SDS011;38819;42.692;23.342;2024-03-08T01:30:19;1.88;;;1.77;;
52956;SDS011;38819;42.692;23.342;2024-03-08T01:32:44;1.60;;;1.50;;
52956;SDS011;38819;42.692;23.342;2024-03-08T01:35:10;1.80;;;1.70;;
52956;SDS011;38819;42.692;23.342;2024-03-08T01:37:35;1.92;;;1.83;;
52956;SDS011;38819;42.692;23.342;2024-03-08T01:40:01;1.52;;;1.50;;
52956;SDS011;38819;42.692;23.342;2024-03-08T01:42:28;1.75;;;1.65;;
52956;SDS011;38819;42.692;23.342;2024-03-08T01:44:53;1.70;;;1.60;;
52956;SDS011;38819;42.692;23.342;2024-03-08T01:47:19;2.78;;;1.90;;
52956;SDS011;38819;42.692;23.342;2024-03-08T01:49:48;1.85;;;1.50;;
52956;SDS011;38819;42.692;23.342;2024-03-08T01:52:15;1.80;;;1.70;;
52956;SDS011;38819;42.692;23.342;2024-03-08T01:54:41;2.17;;;2.05;;
52956;SDS011;38819;42.692;23.342;2024-03-08T01:57:07;1.67;;;1.55;;
52956;SDS011;38819;42.692;23.342;2024-03-08T01:59:32;1.70;;;1.60;;
52956;SDS011;38819;42.692;23.342;2024-03-08T02:02:00;3.88;;;2.00;;
52956;SDS011;38819;42.692;23.342;2024-03-08T02:04:27;2.00;;;1.90;;
52956;SDS011;38819;42.692;23.342;2024-03-08T02:06:55;1.85;;;1.75;;
52956;SDS011;38819;42.692;23.342;2024-03-08T02:09:23;2.30;;;2.10;;
52956;SDS011;38819;42.692;23.342;2024-03-08T02:11:49;2.97;;;1.75;;
52956;SDS011;38819;42.692;23.342;2024-03-08T02:14:15;1.77;;;1.67;;
52956;SDS011;38819;42.692;23.342;2024-03-08T02:16:41;2.10;;;2.00;;
52956;SDS011;38819;42.692;23.342;2024-03-08T02:19:07;2.00;;;1.90;;
52956;SDS011;38819;42.692;23.342;2024-03-08T02:24:00;1.67;;;1.58;;
52956;SDS011;38819;42.692;23.342;2024-03-08T02:26:25;1.50;;;1.38;;
52956;SDS011;38819;42.692;23.342;2024-03-08T02:28:52;3.72;;;1.45;;
52956;SDS011;38819;42.692;23.342;2024-03-08T02:31:18;1.63;;;1.52;;
52956;SDS011;38819;42.692;23.342;2024-03-08T02:33:44;1.77;;;1.67;;
52956;SDS011;38819;42.692;23.342;2024-03-08T02:36:11;2.38;;;1.70;;
52956;SDS011;38819;42.692;23.342;2024-03-08T02:38:37;1.48;;;1.38;;
52956;SDS011;38819;42.692;23.342;2024-03-08T02:41:03;1.55;;;1.45;;
52956;SDS011;38819;42.692;23.342;2024-03-08T02:43:28;1.23;;;1.17;;
52956;SDS011;38819;42.692;23.342;2024-03-08T02:45:54;5.40;;;1.67;;
52956;SDS011;38819;42.692;23.342;2024-03-08T02:48:19;1.13;;;1.13;;
52956;SDS011;38819;42.692;23.342;2024-03-08T02:50:46;1.40;;;1.30;;
52956;SDS011;38819;42.692;23.342;2024-03-08T02:53:12;1.52;;;1.42;;
52956;SDS011;38819;42.692;23.342;2024-03-08T02:55:41;1.42;;;1.33;;
52956;SDS011;38819;42.692;23.342;2024-03-08T02:58:07;1.42;;;1.33;;
52956;SDS011;38819;42.692;23.342;2024-03-08T03:00:38;1.20;;;1.10;;
52956;SDS011;38819;42.692;23.342;2024-03-08T03:03:04;1.75;;;1.65;;
52956;SDS011;38819;42.692;23.342;2024-03-08T03:05:29;1.55;;;1.20;;
52956;SDS011;38819;42.692;23.342;2024-03-08T03:07:55;5.45;;;1.25;;
52956;SDS011;38819;42.692;23.342;2024-03-08T03:10:21;1.98;;;1.58;;
52956;SDS011;38819;42.692;23.342;2024-03-08T03:12:46;1.48;;;1.38;;
52956;SDS011;38819;42.692;23.342;2024-03-08T03:15:13;1.42;;;1.13;;
52956;SDS011;38819;42.692;23.342;2024-03-08T03:17:39;1.30;;;1.20;;
52956;SDS011;38819;42.692;23.342;2024-03-08T03:20:08;1.25;;;1.15;;
52956;SDS011;38819;42.692;23.342;2024-03-08T03:22:39;1.40;;;1.30;;
52956;SDS011;38819;42.692;23.342;2024-03-08T03:25:06;1.30;;;1.20;;
52956;SDS011;38819;42.692;23.342;2024-03-08T03:27:32;1.25;;;1.15;;
52956;SDS011;38819;42.692;23.342;2024-03-08T03:29:58;1.50;;;1.40;;
52956;SDS011;38819;42.692;23.342;2024-03-08T03:32:44;1.10;;;1.05;;
52956;SDS011;38819;42.692;23.342;2024-03-08T03:35:12;1.75;;;1.52;;
52956;SDS011;38819;42.692;23.342;2024-03-08T03:37:37;1.58;;;1.35;;
52956;SDS011;38819;42.692;23.342;2024-03-08T03:40:05;1.30;;;1.20;;
52956;SDS011;38819;42.692;23.342;2024-03-08T03:42:31;1.17;;;1.05;;
52956;SDS011;38819;42.692;23.342;2024-03-08T03:44:56;1.33;;;1.23;;
52956;SDS011;38819;42.692;23.342;2024-03-08T03:47:21;1.80;;;1.40;;
52956;SDS011;38819;42.692;23.342;2024-03-08T03:49:47;1.50;;;1.40;;
52956;SDS011;38819;42.692;23.342;2024-03-08T03:52:12;1.80;;;1.67;;
52956;SDS011;38819;42.692;23.342;2024-03-08T03:54:38;1.92;;;1.40;;
52956;SDS011;38819;42.692;23.342;2024-03-08T03:57:03;1.90;;;1.60;;
52956;SDS011;38819;42.692;23.342;2024-03-08T03:59:29;1.50;;;1.40;;
52956;SDS011;38819;42.692;23.342;2024-03-08T04:01:55;5.20;;;1.50;;
52956;SDS011;38819;42.692;23.342;2024-03-08T04:04:21;2.47;;;1.55;;
52956;SDS011;38819;42.692;23.342;2024-03-08T04:06:46;3.03;;;1.40;;
52956;SDS011;38819;42.692;23.342;2024-03-08T04:09:12;5.60;;;1.25;;
52956;SDS011;38819;42.692;23.342;2024-03-08T04:11:38;1.52;;;1.40;;
52956;SDS011;38819;42.692;23.342;2024-03-08T04:14:04;1.35;;;1.25;;
52956;SDS011;38819;42.692;23.342;2024-03-08T04:16:30;2.05;;;1.55;;
52956;SDS011;38819;42.692;23.342;2024-03-08T04:18:56;1.75;;;1.60;;
52956;SDS011;38819;42.692;23.342;2024-03-08T04:21:22;1.70;;;1.60;;
52956;SDS011;38819;42.692;23.342;2024-03-08T04:23:47;1.63;;;1.52;;
52956;SDS011;38819;42.692;23.342;2024-03-08T04:26:13;3.63;;;2.00;;
52956;SDS011;38819;42.692;23.342;2024-03-08T04:28:38;2.10;;;2.00;;
52956;SDS011;38819;42.692;23.342;2024-03-08T04:31:04;2.67;;;1.83;;
52956;SDS011;38819;42.692;23.342;2024-03-08T04:33:30;2.47;;;2.15;;
52956;SDS011;38819;42.692;23.342;2024-03-08T04:35:55;2.53;;;2.33;;
52956;SDS011;38819;42.692;23.342;2024-03-08T04:38:21;2.80;;;2.60;;
52956;SDS011;38819;42.692;23.342;2024-03-08T04:40:47;6.70;;;2.63;;
52956;SDS011;38819;42.692;23.342;2024-03-08T04:43:14;3.25;;;2.30;;
52956;SDS011;38819;42.692;23.342;2024-03-08T04:45:39;3.28;;;2.97;;
52956;SDS011;38819;42.692;23.342;2024-03-08T04:48:07;5.75;;;2.92;;
52956;SDS011;38819;42.692;23.342;2024-03-08T04:50:36;4.63;;;2.88;;
52956;SDS011;38819;42.692;23.342;2024-03-08T04:53:03;4.35;;;2.70;;
52956;SDS011;38819;42.692;23.342;2024-03-08T04:55:29;3.20;;;2.90;;
52956;SDS011;38819;42.692;23.342;2024-03-08T04:57:55;3.55;;;2.90;;
52956;SDS011;38819;42.692;23.342;2024-03-08T05:00:20;3.90;;;2.60;;
52956;SDS011;38819;42.692;23.342;2024-03-08T05:02:45;3.50;;;2.45;;
52956;SDS011;38819;42.692;23.342;2024-03-08T05:05:11;2.50;;;2.30;;
52956;SDS011;38819;42.692;23.342;2024-03-08T05:07:38;4.03;;;2.55;;
52956;SDS011;38819;42.692;23.342;2024-03-08T05:10:04;2.70;;;2.50;;
52956;SDS011;38819;42.692;23.342;2024-03-08T05:12:31;2.55;;;2.38;;
52956;SDS011;38819;42.692;23.342;2024-03-08T05:14:57;4.63;;;2.40;;
52956;SDS011;38819;42.692;23.342;2024-03-08T05:17:22;3.70;;;2.80;;
52956;SDS011;38819;42.692;23.342;2024-03-08T05:19:49;3.40;;;3.10;;
52956;SDS011;38819;42.692;23.342;2024-03-08T05:22:14;3.35;;;3.05;;
52956;SDS011;38819;42.692;23.342;2024-03-08T05:24:40;3.17;;;2.78;;
52956;SDS011;38819;42.692;23.342;2024-03-08T05:27:05;4.90;;;3.22;;
52956;SDS011;38819;42.692;23.342;2024-03-08T05:29:31;3.63;;;3.33;;
52956;SDS011;38819;42.692;23.342;2024-03-08T05:31:56;3.70;;;3.40;;
52956;SDS011;38819;42.692;23.342;2024-03-08T05:34:22;5.00;;;3.55;;
52956;SDS011;38819;42.692;23.342;2024-03-08T05:36:48;6.35;;;4.32;;
52956;SDS011;38819;42.692;23.342;2024-03-08T05:39:18;4.45;;;3.67;;
52956;SDS011;38819;42.692;23.342;2024-03-08T05:41:44;5.85;;;4.10;;
52956;SDS011;38819;42.692;23.342;2024-03-08T05:44:10;4.65;;;3.70;;
52956;SDS011;38819;42.692;23.342;2024-03-08T05:46:36;4.68;;;4.22;;
52956;SDS011;38819;42.692;23.342;2024-03-08T05:49:02;4.60;;;3.83;;
52956;SDS011;38819;42.692;23.342;2024-03-08T05:51:31;6.38;;;4.32;;
52956;SDS011;38819;42.692;23.342;2024-03-08T05:53:59;7.82;;;4.97;;
52956;SDS011;38819;42.692;23.342;2024-03-08T05:56:27;10.70;;;4.57;;
52956;SDS011;38819;42.692;23.342;2024-03-08T05:58:54;9.15;;;5.15;;
52956;SDS011;38819;42.692;23.342;2024-03-08T06:01:19;9.65;;;4.90;;
52956;SDS011;38819;42.692;23.342;2024-03-08T06:03:44;9.27;;;6.13;;
52956;SDS011;38819;42.692;23.342;2024-03-08T06:06:13;8.88;;;5.90;;
52956;SDS011;38819;42.692;23.342;2024-03-08T06:08:40;9.80;;;6.10;;
52956;SDS011;38819;42.692;23.342;2024-03-08T06:11:08;7.15;;;4.38;;
52956;SDS011;38819;42.692;23.342;2024-03-08T06:13:33;7.28;;;4.55;;
52956;SDS011;38819;42.692;23.342;2024-03-08T06:15:59;5.78;;;4.32;;
52956;SDS011;38819;42.692;23.342;2024-03-08T06:18:29;7.32;;;4.85;;
52956;SDS011;38819;42.692;23.342;2024-03-08T06:20:58;6.40;;;4.50;;
52956;SDS011;38819;42.692;23.342;2024-03-08T06:23:24;6.97;;;4.60;;
52956;SDS011;38819;42.692;23.342;2024-03-08T06:25:49;9.00;;;5.00;;
52956;SDS011;38819;42.692;23.342;2024-03-08T06:28:15;6.43;;;5.00;;
52956;SDS011;38819;42.692;23.342;2024-03-08T06:30:41;4.72;;;4.05;;
52956;SDS011;38819;42.692;23.342;2024-03-08T06:33:07;6.20;;;4.75;;
52956;SDS011;38819;42.692;23.342;2024-03-08T06:35:32;7.40;;;4.40;;
52956;SDS011;38819;42.692;23.342;2024-03-08T06:38:01;5.75;;;4.25;;
52956;SDS011;38819;42.692;23.342;2024-03-08T06:40:26;7.78;;;5.40;;
52956;SDS011;38819;42.692;23.342;2024-03-08T06:42:51;7.22;;;5.00;;
52956;SDS011;38819;42.692;23.342;2024-03-08T06:45:17;10.98;;;7.28;;
52956;SDS011;38819;42.692;23.342;2024-03-08T06:47:46;10.20;;;5.13;;
52956;SDS011;38819;42.692;23.342;2024-03-08T06:50:11;5.32;;;4.55;;
52956;SDS011;38819;42.692;23.342;2024-03-08T06:52:37;6.90;;;4.25;;
52956;SDS011;38819;42.692;23.342;2024-03-08T06:55:03;9.25;;;4.72;;
52956;SDS011;38819;42.692;23.342;2024-03-08T06:57:30;6.73;;;4.97;;
52956;SDS011;38819;42.692;23.342;2024-03-08T06:59:56;7.90;;;4.95;;
52956;SDS011;38819;42.692;23.342;2024-03-08T07:02:22;7.63;;;5.03;;
52956;SDS011;38819;42.692;23.342;2024-03-08T07:04:49;6.30;;;4.88;;
52956;SDS011;38819;42.692;23.342;2024-03-08T07:07:15;4.95;;;4.18;;
52956;SDS011;38819;42.692;23.342;2024-03-08T07:09:41;8.48;;;4.10;;
52956;SDS011;38819;42.692;23.342;2024-03-08T07:12:10;10.63;;;5.25;;
52956;SDS011;38819;42.692;23.342;2024-03-08T07:14:36;8.85;;;5.22;;
52956;SDS011;38819;42.692;23.342;2024-03-08T07:17:05;7.13;;;5.32;;
52956;SDS011;38819;42.692;23.342;2024-03-08T07:19:33;10.95;;;5.13;;
52956;SDS011;38819;42.692;23.342;2024-03-08T07:21:59;11.48;;;4.80;;
52956;SDS011;38819;42.692;23.342;2024-03-08T07:24:25;7.88;;;5.30;;
52956;SDS011;38819;42.692;23.342;2024-03-08T07:27:04;7.03;;;5.15;;
52956;SDS011;38819;42.692;23.342;2024-03-08T07:29:30;7.85;;;5.35;;
52956;SDS011;38819;42.692;23.342;2024-03-08T07:31:56;7.88;;;5.40;;
52956;SDS011;38819;42.692;23.342;2024-03-08T07:34:27;8.00;;;5.75;;
52956;SDS011;38819;42.692;23.342;2024-03-08T07:36:57;9.98;;;5.22;;
52956;SDS011;38819;42.692;23.342;2024-03-08T07:39:23;9.55;;;5.85;;
52956;SDS011;38819;42.692;23.342;2024-03-08T07:41:48;6.65;;;4.88;;
52956;SDS011;38819;42.692;23.342;2024-03-08T07:44:17;12.38;;;5.60;;
52956;SDS011;38819;42.692;23.342;2024-03-08T07:46:43;8.10;;;6.57;;
52956;SDS011;38819;42.692;23.342;2024-03-08T07:49:09;6.78;;;5.78;;
52956;SDS011;38819;42.692;23.342;2024-03-08T07:51:36;10.35;;;5.43;;
52956;SDS011;38819;42.692;23.342;2024-03-08T07:54:02;6.35;;;3.53;;
52956;SDS011;38819;42.692;23.342;2024-03-08T07:56:29;5.28;;;3.22;;
52956;SDS011;38819;42.692;23.342;2024-03-08T07:58:54;7.15;;;4.40;;
52956;SDS011;38819;42.692;23.342;2024-03-08T08:01:20;8.10;;;5.30;;
52956;SDS011;38819;42.692;23.342;2024-03-08T08:03:45;8.85;;;5.28;;
52956;SDS011;38819;42.692;23.342;2024-03-08T08:06:11;15.18;;;6.25;;
52956;SDS011;38819;42.692;23.342;2024-03-08T08:08:43;7.93;;;5.93;;
52956;SDS011;38819;42.692;23.342;2024-03-08T08:11:09;3.58;;;2.95;;
52956;SDS011;38819;42.692;23.342;2024-03-08T08:13:36;3.83;;;3.10;;
52956;SDS011;38819;42.692;23.342;2024-03-08T08:16:02;3.97;;;3.60;;
52956;SDS011;38819;42.692;23.342;2024-03-08T08:18:28;4.32;;;3.53;;
52956;SDS011;38819;42.692;23.342;2024-03-08T08:20:55;7.00;;;2.80;;
52956;SDS011;38819;42.692;23.342;2024-03-08T08:23:20;4.43;;;3.03;;
52956;SDS011;38819;42.692;23.342;2024-03-08T08:25:46;3.67;;;2.78;;
52956;SDS011;38819;42.692;23.342;2024-03-08T08:28:15;3.22;;;2.80;;
52956;SDS011;38819;42.692;23.342;2024-03-08T08:33:08;14.65;;;6.53;;
52956;SDS011;38819;42.692;23.342;2024-03-08T08:35:33;6.15;;;5.15;;
52956;SDS011;38819;42.692;23.342;2024-03-08T08:37:58;8.70;;;5.63;;
52956;SDS011;38819;42.692;23.342;2024-03-08T08:40:24;13.80;;;7.07;;
52956;SDS011;38819;42.692;23.342;2024-03-08T08:42:50;10.85;;;6.10;;
52956;SDS011;38819;42.692;23.342;2024-03-08T08:45:17;7.68;;;5.95;;
52956;SDS011;38819;42.692;23.342;2024-03-08T08:47:43;8.90;;;6.13;;
52956;SDS011;38819;42.692;23.342;2024-03-08T08:50:10;7.97;;;4.40;;
52956;SDS011;38819;42.692;23.342;2024-03-08T08:52:39;9.80;;;4.35;;
52956;SDS011;38819;42.692;23.342;2024-03-08T08:55:05;6.55;;;3.17;;
52956;SDS011;38819;42.692;23.342;2024-03-08T08:57:31;4.55;;;3.17;;
52956;SDS011;38819;42.692;23.342;2024-03-08T08:59:58;6.37;;;2.67;;
52956;SDS011;38819;42.692;23.342;2024-03-08T09:02:23;7.78;;;3.22;;
52956;SDS011;38819;42.692;23.342;2024-03-08T09:04:50;5.65;;;2.75;;
52956;SDS011;38819;42.692;23.342;2024-03-08T09:07:16;4.78;;;2.97;;
52956;SDS011;38819;42.692;23.342;2024-03-08T09:12:09;2.60;;;2.40;;
52956;SDS011;38819;42.692;23.342;2024-03-08T09:14:38;5.05;;;2.95;;
52956;SDS011;38819;42.692;23.342;2024-03-08T09:17:07;4.50;;;3.28;;
52956;SDS011;38819;42.692;23.342;2024-03-08T09:19:33;3.83;;;2.85;;
52956;SDS011;38819;42.692;23.342;2024-03-08T09:22:02;3.05;;;2.75;;
52956;SDS011;38819;42.692;23.342;2024-03-08T09:24:29;3.47;;;2.80;;
52956;SDS011;38819;42.692;23.342;2024-03-08T09:26:56;3.27;;;2.60;;
52956;SDS011;38819;42.692;23.342;2024-03-08T09:29:22;2.33;;;2.10;;
52956;SDS011;38819;42.692;23.342;2024-03-08T09:31:48;4.88;;;3.10;;
52956;SDS011;38819;42.692;23.342;2024-03-08T09:34:13;2.72;;;2.50;;
52956;SDS011;38819;42.692;23.342;2024-03-08T09:36:39;3.72;;;3.35;;
52956;SDS011;38819;42.692;23.342;2024-03-08T09:39:06;4.47;;;4.07;;
52956;SDS011;38819;42.692;23.342;2024-03-08T09:41:32;6.15;;;5.53;;
52956;SDS011;38819;42.692;23.342;2024-03-08T09:43:59;6.97;;;4.03;;
52956;SDS011;38819;42.692;23.342;2024-03-08T09:46:25;11.05;;;4.65;;
52956;SDS011;38819;42.692;23.342;2024-03-08T09:48:52;6.17;;;5.00;;
52956;SDS011;38819;42.692;23.342;2024-03-08T09:51:19;4.65;;;3.50;;
52956;SDS011;38819;42.692;23.342;2024-03-08T09:53:52;3.70;;;3.25;;
52956;SDS011;38819;42.692;23.342;2024-03-08T09:56:18;3.58;;;2.70;;
52956;SDS011;38819;42.692;23.342;2024-03-08T09:58:44;4.50;;;3.63;;
52956;SDS011;38819;42.692;23.342;2024-03-08T10:01:36;2.78;;;2.38;;
52956;SDS011;38819;42.692;23.342;2024-03-08T10:04:02;4.00;;;2.78;;
52956;SDS011;38819;42.692;23.342;2024-03-08T10:06:27;2.78;;;2.40;;
52956;SDS011;38819;42.692;23.342;2024-03-08T10:08:52;2.67;;;2.47;;
52956;SDS011;38819;42.692;23.342;2024-03-08T10:11:18;2.75;;;2.55;;
52956;SDS011;38819;42.692;23.342;2024-03-08T10:13:44;3.03;;;2.72;;
52956;SDS011;38819;42.692;23.342;2024-03-08T10:16:12;5.20;;;2.33;;
52956;SDS011;38819;42.692;23.342;2024-03-08T10:18:38;5.00;;;2.95;;
52956;SDS011;38819;42.692;23.342;2024-03-08T10:21:11;2.55;;;2.35;;
52956;SDS011;38819;42.692;23.342;2024-03-08T10:23:37;2.90;;;2.50;;
52956;SDS011;38819;42.692;23.342;2024-03-08T10:28:50;5.30;;;2.20;;
52956;SDS011;38819;42.692;23.342;2024-03-08T10:31:17;4.10;;;1.88;;
52956;SDS011;38819;42.692;23.342;2024-03-08T10:33:43;2.55;;;2.20;;
52956;SDS011;38819;42.692;23.342;2024-03-08T10:36:09;3.38;;;2.63;;
52956;SDS011;38819;42.692;23.342;2024-03-08T10:38:37;2.80;;;2.55;;
52956;SDS011;38819;42.692;23.342;2024-03-08T10:41:07;8.40;;;2.05;;
52956;SDS011;38819;42.692;23.342;2024-03-08T10:49:03;2.72;;;2.40;;
52956;SDS011;38819;42.692;23.342;2024-03-08T10:51:33;5.10;;;2.20;;
52956;SDS011;38819;42.692;23.342;2024-03-08T10:53:59;2.08;;;1.77;;
52956;SDS011;38819;42.692;23.342;2024-03-08T10:56:28;2.15;;;2.00;;
52956;SDS011;38819;42.692;23.342;2024-03-08T10:58:54;5.47;;;1.58;;
52956;SDS011;38819;42.692;23.342;2024-03-08T11:01:20;3.10;;;2.30;;
52956;SDS011;38819;42.692;23.342;2024-03-08T11:03:46;4.40;;;2.42;;
52956;SDS011;38819;42.692;23.342;2024-03-08T11:07:03;1.52;;;1.42;;
52956;SDS011;38819;42.692;23.342;2024-03-08T11:12:26;2.10;;;1.48;;
52956;SDS011;38819;42.692;23.342;2024-03-08T11:15:00;1.50;;;1.40;;
52956;SDS011;38819;42.692;23.342;2024-03-08T11:19:58;1.40;;;1.30;;
52956;SDS011;38819;42.692;23.342;2024-03-08T11:22:32;2.05;;;1.40;;
52956;SDS011;38819;42.692;23.342;2024-03-08T11:24:59;1.98;;;1.35;;
52956;SDS011;38819;42.692;23.342;2024-03-08T11:27:30;2.20;;;1.20;;
52956;SDS011;38819;42.692;23.342;2024-03-08T11:29:59;1.80;;;1.50;;
52956;SDS011;38819;42.692;23.342;2024-03-08T11:32:34;1.65;;;1.55;;
52956;SDS011;38819;42.692;23.342;2024-03-08T11:35:01;2.05;;;1.63;;
52956;SDS011;38819;42.692;23.342;2024-03-08T11:37:32;2.10;;;1.52;;
52956;SDS011;38819;42.692;23.342;2024-03-08T11:40:00;1.42;;;1.33;;
52956;SDS011;38819;42.692;23.342;2024-03-08T11:42:29;1.85;;;1.45;;
52956;SDS011;38819;42.692;23.342;2024-03-08T11:44:55;2.50;;;1.60;;
52956;SDS011;38819;42.692;23.342;2024-03-08T11:47:21;1.33;;;1.20;;
52956;SDS011;38819;42.692;23.342;2024-03-08T11:49:47;2.33;;;1.80;;
52956;SDS011;38819;42.692;23.342;2024-03-08T11:52:16;1.52;;;1.27;;
52956;SDS011;38819;42.692;23.342;2024-03-08T11:54:48;2.65;;;1.40;;
52956;SDS011;38819;42.692;23.342;2024-03-08T11:57:19;4.40;;;1.50;;
52956;SDS011;38819;42.692;23.342;2024-03-08T11:59:51;4.38;;;1.42;;
52956;SDS011;38819;42.692;23.342;2024-03-08T12:02:21;1.52;;;1.42;;
52956;SDS011;38819;42.692;23.342;2024-03-08T12:04:50;9.10;;;3.08;;
52956;SDS011;38819;42.692;23.342;2024-03-08T12:07:28;3.70;;;1.15;;
52956;SDS011;38819;42.692;23.342;2024-03-08T12:12:46;1.10;;;1.10;;
52956;SDS011;38819;42.692;23.342;2024-03-08T12:15:17;1.40;;;1.00;;
52956;SDS011;38819;42.692;23.342;2024-03-08T12:17:44;2.38;;;1.67;;
52956;SDS011;38819;42.692;23.342;2024-03-08T12:20:25;4.15;;;1.48;;
52956;SDS011;38819;42.692;23.342;2024-03-08T12:22:54;3.40;;;1.40;;
52956;SDS011;38819;42.692;23.342;2024-03-08T12:25:26;1.63;;;1.52;;
52956;SDS011;38819;42.692;23.342;2024-03-08T12:27:53;1.80;;;1.63;;
52956;SDS011;38819;42.692;23.342;2024-03-08T12:30:21;2.65;;;2.17;;
52956;SDS011;38819;42.692;23.342;2024-03-08T12:35:24;2.90;;;2.22;;
52956;SDS011;38819;42.692;23.342;2024-03-08T12:37:52;1.90;;;1.70;;
52956;SDS011;38819;42.692;23.342;2024-03-08T12:40:19;5.88;;;1.60;;
52956;SDS011;38819;42.692;23.342;2024-03-08T12:42:50;1.35;;;1.25;;
52956;SDS011;38819;42.692;23.342;2024-03-08T12:45:16;3.42;;;2.05;;
52956;SDS011;38819;42.692;23.342;2024-03-08T12:47:41;3.05;;;1.60;;
52956;SDS011;38819;42.692;23.342;2024-03-08T12:50:07;5.18;;;1.77;;
52956;SDS011;38819;42.692;23.342;2024-03-08T12:52:34;1.70;;;1.60;;
52956;SDS011;38819;42.692;23.342;2024-03-08T12:55:00;4.15;;;2.10;;
52956;SDS011;38819;42.692;23.342;2024-03-08T12:57:31;1.50;;;1.23;;
52956;SDS011;38819;42.692;23.342;2024-03-08T13:00:01;1.08;;;1.05;;
52956;SDS011;38819;42.692;23.342;2024-03-08T13:02:28;2.03;;;1.58;;
52956;SDS011;38819;42.692;23.342;2024-03-08T13:04:55;1.57;;;1.47;;
52956;SDS011;38819;42.692;23.342;2024-03-08T13:07:22;1.75;;;1.38;;
52956;SDS011;38819;42.692;23.342;2024-03-08T13:09:51;3.25;;;1.60;;
52956;SDS011;38819;42.692;23.342;2024-03-08T13:12:23;1.23;;;1.20;;
52956;SDS011;38819;42.692;23.342;2024-03-08T13:14:48;1.30;;;1.20;;
52956;SDS011;38819;42.692;23.342;2024-03-08T13:17:14;5.20;;;1.73;;
52956;SDS011;38819;42.692;23.342;2024-03-08T13:19:40;2.35;;;1.88;;
52956;SDS011;38819;42.692;23.342;2024-03-08T13:22:07;1.35;;;1.23;;
52956;SDS011;38819;42.692;23.342;2024-03-08T13:24:36;3.05;;;1.48;;
52956;SDS011;38819;42.692;23.342;2024-03-08T13:27:02;1.42;;;1.33;;
52956;SDS011;38819;42.692;23.342;2024-03-08T13:29:41;1.55;;;1.33;;
52956;SDS011;38819;42.692;23.342;2024-03-08T13:32:08;1.83;;;1.70;;
52956;SDS011;38819;42.692;23.342;2024-03-08T13:34:36;2.35;;;1.60;;
52956;SDS011;38819;42.692;23.342;2024-03-08T13:37:02;1.50;;;1.40;;
52956;SDS011;38819;42.692;23.342;2024-03-08T13:39:30;3.70;;;1.58;;
52956;SDS011;38819;42.692;23.342;2024-03-08T13:42:05;2.80;;;1.48;;
52956;SDS011;38819;42.692;23.342;2024-03-08T13:44:35;1.50;;;1.40;;
52956;SDS011;38819;42.692;23.342;2024-03-08T13:47:02;8.00;;;2.03;;
52956;SDS011;38819;42.692;23.342;2024-03-08T13:49:30;2.70;;;1.83;;
52956;SDS011;38819;42.692;23.342;2024-03-08T13:51:56;2.38;;;1.50;;
52956;SDS011;38819;42.692;23.342;2024-03-08T13:54:23;1.98;;;1.83;;
52956;SDS011;38819;42.692;23.342;2024-03-08T13:56:49;2.15;;;1.77;;
52956;SDS011;38819;42.692;23.342;2024-03-08T13:59:15;3.60;;;1.60;;
52956;SDS011;38819;42.692;23.342;2024-03-08T14:01:40;2.13;;;1.83;;
52956;SDS011;38819;42.692;23.342;2024-03-08T14:04:08;3.83;;;2.33;;
52956;SDS011;38819;42.692;23.342;2024-03-08T14:06:34;4.55;;;1.90;;
52956;SDS011;38819;42.692;23.342;2024-03-08T14:09:00;7.35;;;1.85;;
52956;SDS011;38819;42.692;23.342;2024-03-08T14:11:26;3.17;;;1.80;;
52956;SDS011;38819;42.692;23.342;2024-03-08T14:13:52;2.10;;;1.83;;
52956;SDS011;38819;42.692;23.342;2024-03-08T14:16:18;4.65;;;2.40;;
52956;SDS011;38819;42.692;23.342;2024-03-08T14:18:44;2.00;;;1.83;;
52956;SDS011;38819;42.692;23.342;2024-03-08T14:21:09;5.70;;;2.13;;
52956;SDS011;38819;42.692;23.342;2024-03-08T14:23:35;8.55;;;2.80;;
52956;SDS011;38819;42.692;23.342;2024-03-08T14:26:01;3.95;;;2.33;;
52956;SDS011;38819;42.692;23.342;2024-03-08T14:28:27;2.47;;;2.10;;
52956;SDS011;38819;42.692;23.342;2024-03-08T14:30:53;2.38;;;2.17;;
52956;SDS011;38819;42.692;23.342;2024-03-08T14:33:18;4.82;;;1.95;;
52956;SDS011;38819;42.692;23.342;2024-03-08T14:35:44;1.92;;;1.80;;
52956;SDS011;38819;42.692;23.342;2024-03-08T14:38:12;4.07;;;2.08;;
52956;SDS011;38819;42.692;23.342;2024-03-08T14:40:37;2.75;;;2.13;;
52956;SDS011;38819;42.692;23.342;2024-03-08T14:43:03;3.13;;;1.95;;
52956;SDS011;38819;42.692;23.342;2024-03-08T14:45:29;4.75;;;2.42;;
52956;SDS011;38819;42.692;23.342;2024-03-08T14:47:55;1.98;;;1.88;;
52956;SDS011;38819;42.692;23.342;2024-03-08T14:50:23;6.33;;;1.73;;
52956;SDS011;38819;42.692;23.342;2024-03-08T14:52:49;4.40;;;2.53;;
52956;SDS011;38819;42.692;23.342;2024-03-08T14:55:18;6.97;;;2.45;;
52956;SDS011;38819;42.692;23.342;2024-03-08T14:57:47;7.43;;;2.90;;
52956;SDS011;38819;42.692;23.342;2024-03-08T15:00:15;3.80;;;2.90;;